Time;durP1;ratioP1;P1;durP2;ratioP2;P2;SDS_P1;SDS_P2;PMS_P1;PMS_P2;Temp;Humidity;BMP_temperature;BMP_pressure;BME280_temperature;BME280_humidity;BME280_pressure;Samples;Min_cycle;Max_cycle;Signal;HPM_P1;HPM_P2
2021/07/09 00:02:10;;;;;;;15.13;13.27;;;14.80;99.90;;;;;;4165829;28;20035;-77
2021/07/09 00:04:11;;;;;;;20.35;13.77;;;14.80;99.90;;;;;;4164060;28;20055;-76
2021/07/09 00:06:13;;;;;;;15.65;13.60;;;14.70;99.90;;;;;;4165750;28;20038;-77
2021/07/09 00:08:13;;;;;;;23.13;13.85;;;14.70;99.90;;;;;;4162933;28;20033;-77
2021/07/09 00:10:14;;;;;;;17.20;12.23;;;14.70;99.90;;;;;;4164345;28;20033;-77
2021/07/09 00:12:15;;;;;;;17.30;13.77;;;14.70;99.90;;;;;;4163949;28;20432;-77
2021/07/09 00:14:18;;;;;;;19.15;14.07;;;14.80;99.90;;;;;;4165561;28;20033;-77
2021/07/09 00:16:19;;;;;;;22.92;12.90;;;14.80;99.90;;;;;;4164778;28;20104;-77
2021/07/09 00:18:20;;;;;;;18.25;13.82;;;14.80;99.90;;;;;;4162743;28;20830;-77
2021/07/09 00:20:21;;;;;;;17.63;13.15;;;14.80;99.90;;;;;;4164370;28;20017;-77
2021/07/09 00:22:22;;;;;;;19.02;13.50;;;14.70;99.90;;;;;;4162509;28;20037;-77
2021/07/09 00:24:24;;;;;;;21.92;14.68;;;14.70;99.90;;;;;;4161952;28;20037;-77
2021/07/09 00:26:26;;;;;;;18.25;14.27;;;14.60;99.90;;;;;;4161743;28;20025;-77
2021/07/09 00:28:26;;;;;;;16.00;12.00;;;14.60;99.90;;;;;;4164366;28;20025;-77
2021/07/09 00:30:27;;;;;;;17.08;12.63;;;14.50;99.90;;;;;;4162688;28;20044;-77
2021/07/09 00:32:28;;;;;;;19.65;15.85;;;14.40;99.90;;;;;;4164359;28;20049;-77
2021/07/09 00:34:28;;;;;;;23.33;15.40;;;14.30;99.90;;;;;;4163751;28;20037;-77
2021/07/09 00:36:29;;;;;;;19.48;14.07;;;14.30;99.90;;;;;;4164177;28;20056;-77
2021/07/09 00:38:30;;;;;;;20.30;15.60;;;14.20;99.90;;;;;;4163907;28;20029;-77
2021/07/09 00:40:30;;;;;;;21.52;14.32;;;14.20;99.90;;;;;;4162350;28;20108;-77
2021/07/09 00:42:31;;;;;;;17.65;14.32;;;14.10;99.90;;;;;;4162228;28;20440;-77
2021/07/09 00:44:32;;;;;;;22.63;16.20;;;14.10;99.90;;;;;;4164064;28;20060;-77
2021/07/09 00:46:39;;;;;;;24.00;14.23;;;14.00;99.90;;;;;;4165160;28;20030;-77
2021/07/09 00:48:39;;;;;;;17.75;14.15;;;14.00;99.90;;;;;;4163527;28;20041;-77
2021/07/09 00:50:40;;;;;;;26.63;15.57;;;13.90;99.90;;;;;;4163990;28;20025;-77
2021/07/09 00:52:41;;;;;;;23.35;16.38;;;13.90;99.90;;;;;;4163150;28;20041;-77
2021/07/09 00:54:42;;;;;;;24.45;14.80;;;13.90;99.90;;;;;;4163540;28;20040;-77
2021/07/09 00:56:43;;;;;;;19.70;15.07;;;13.90;99.90;;;;;;4164923;28;20025;-77
2021/07/09 00:58:44;;;;;;;25.77;17.33;;;13.80;99.90;;;;;;4164930;28;20405;-77
2021/07/09 01:00:45;;;;;;;24.50;15.98;;;13.80;99.90;;;;;;4163140;28;20034;-77
2021/07/09 01:02:47;;;;;;;24.63;15.30;;;13.70;99.90;;;;;;4164924;28;20087;-77
2021/07/09 01:04:48;;;;;;;24.25;15.85;;;13.70;99.90;;;;;;4163540;28;20036;-77
2021/07/09 01:06:48;;;;;;;25.13;16.10;;;13.70;99.90;;;;;;4163231;28;20056;-77
2021/07/09 01:08:49;;;;;;;23.83;15.65;;;13.70;99.90;;;;;;4164558;28;20512;-77
2021/07/09 01:10:50;;;;;;;21.67;15.50;;;13.60;99.90;;;;;;4164291;28;20045;-77
2021/07/09 01:12:51;;;;;;;24.83;17.08;;;13.60;99.90;;;;;;4163622;28;20037;-77
2021/07/09 01:14:51;;;;;;;27.67;16.13;;;13.60;99.90;;;;;;4164842;28;20034;-78
2021/07/09 01:16:52;;;;;;;31.38;17.65;;;13.60;99.90;;;;;;4164472;28;20140;-78
2021/07/09 01:18:53;;;;;;;26.63;16.50;;;13.50;99.90;;;;;;4164025;28;20033;-77
2021/07/09 01:20:54;;;;;;;27.40;17.00;;;13.50;99.90;;;;;;4161934;28;20029;-77
2021/07/09 01:22:56;;;;;;;24.30;16.33;;;13.50;99.90;;;;;;4163665;28;20026;-77
2021/07/09 01:24:58;;;;;;;27.40;16.70;;;13.50;99.90;;;;;;4157638;28;20056;-77
2021/07/09 01:26:59;;;;;;;27.25;16.73;;;13.40;99.90;;;;;;4160352;28;20045;-77
2021/07/09 01:29:00;;;;;;;31.17;18.25;;;13.40;99.90;;;;;;4164099;28;20036;-76
2021/07/09 01:31:02;;;;;;;25.45;16.33;;;13.30;99.90;;;;;;4163504;28;20400;-77
2021/07/09 01:33:04;;;;;;;26.65;15.45;;;13.30;99.90;;;;;;4162334;28;20025;-77
2021/07/09 01:35:06;;;;;;;29.52;17.88;;;13.20;99.90;;;;;;4157921;28;20036;-77
2021/07/09 01:37:15;;;;;;;26.33;16.83;;;13.20;99.90;;;;;;4162777;28;20036;-77
2021/07/09 01:39:16;;;;;;;27.83;16.50;;;13.20;99.90;;;;;;4158501;28;20068;-77
2021/07/09 01:41:18;;;;;;;27.50;17.70;;;13.30;99.90;;;;;;4163574;28;20075;-77
2021/07/09 01:43:18;;;;;;;28.35;17.27;;;13.30;99.90;;;;;;4161882;28;20487;-77
2021/07/09 01:45:19;;;;;;;31.15;17.27;;;13.30;99.90;;;;;;4154400;28;20053;-76
2021/07/09 01:47:20;;;;;;;29.55;17.85;;;13.30;99.90;;;;;;4162170;28;20039;-77
2021/07/09 01:49:21;;;;;;;28.70;16.77;;;13.20;99.90;;;;;;4163901;28;20108;-77
2021/07/09 01:51:21;;;;;;;33.72;18.73;;;13.20;99.90;;;;;;4162542;28;20128;-77
2021/07/09 01:53:22;;;;;;;30.52;18.80;;;13.10;99.90;;;;;;4162822;28;20036;-77
2021/07/09 01:55:24;;;;;;;30.02;19.73;;;13.10;99.90;;;;;;4161909;28;20381;-77
2021/07/09 01:57:25;;;;;;;34.05;18.52;;;13.10;99.90;;;;;;4163890;28;20045;-77
2021/07/09 01:59:26;;;;;;;32.03;18.70;;;13.10;99.90;;;;;;4163670;28;20087;-77
2021/07/09 02:01:26;;;;;;;36.35;17.98;;;13.10;99.90;;;;;;4164049;28;20034;-77
2021/07/09 02:03:27;;;;;;;30.25;18.02;;;13.10;99.90;;;;;;4163846;28;20040;-77
2021/07/09 02:05:27;;;;;;;35.53;19.20;;;13.10;99.90;;;;;;4163475;28;20076;-77
2021/07/09 02:07:28;;;;;;;31.92;18.45;;;13.10;99.90;;;;;;4163717;28;20041;-77
2021/07/09 02:09:28;;;;;;;34.08;18.58;;;13.10;99.90;;;;;;4163730;28;20507;-77
2021/07/09 02:11:29;;;;;;;31.67;19.00;;;13.00;99.90;;;;;;4163778;28;20117;-77
2021/07/09 02:13:30;;;;;;;32.40;18.02;;;13.00;99.90;;;;;;4163798;28;20112;-77
2021/07/09 02:15:36;;;;;;;33.60;17.55;;;13.00;99.90;;;;;;4162985;28;20507;-77
2021/07/09 02:17:37;;;;;;;44.20;17.83;;;13.00;99.90;;;;;;4162543;28;20116;-77
2021/07/09 02:19:39;;;;;;;35.47;19.17;;;13.00;99.90;;;;;;4161880;28;20099;-77
2021/07/09 02:21:44;;;;;;;34.35;17.80;;;13.00;99.90;;;;;;4163893;28;20034;-77
2021/07/09 02:23:45;;;;;;;32.13;16.83;;;13.00;99.90;;;;;;4163593;28;20034;-77
2021/07/09 02:25:46;;;;;;;26.48;15.95;;;13.00;99.90;;;;;;4162224;28;20064;-77
2021/07/09 02:27:48;;;;;;;30.35;18.48;;;13.00;99.90;;;;;;4161736;28;20083;-77
2021/07/09 02:29:49;;;;;;;31.30;16.25;;;13.00;99.90;;;;;;4163486;28;20033;-77
2021/07/09 02:31:50;;;;;;;31.58;16.02;;;13.00;99.90;;;;;;4161246;28;20030;-77
2021/07/09 02:33:51;;;;;;;29.55;16.67;;;13.00;99.90;;;;;;4155517;28;20080;-77
2021/07/09 02:35:52;;;;;;;29.70;17.05;;;12.90;99.90;;;;;;4163517;28;20037;-77
2021/07/09 02:37:54;;;;;;;29.42;17.15;;;12.90;99.90;;;;;;4161445;28;20041;-77
2021/07/09 02:39:55;;;;;;;31.95;17.70;;;12.90;99.90;;;;;;4162093;28;20064;-77
2021/07/09 02:41:57;;;;;;;32.65;18.05;;;13.00;99.90;;;;;;4162299;28;20038;-77
2021/07/09 02:43:57;;;;;;;35.20;17.92;;;12.90;99.90;;;;;;4161742;28;20044;-77
2021/07/09 02:45:58;;;;;;;35.20;18.50;;;12.90;99.90;;;;;;4162139;28;20033;-76
2021/07/09 02:47:58;;;;;;;30.23;18.08;;;12.90;99.90;;;;;;4160974;28;20042;-77
2021/07/09 02:49:59;;;;;;;34.03;18.40;;;12.90;99.90;;;;;;4162873;28;20033;-77
2021/07/09 02:52:01;;;;;;;34.47;18.15;;;12.90;99.90;;;;;;4162317;28;20531;-77
2021/07/09 02:54:01;;;;;;;36.63;19.17;;;12.80;99.90;;;;;;4163075;28;20571;-76
2021/07/09 02:56:05;;;;;;;36.85;18.98;;;12.70;99.90;;;;;;4149544;28;20034;-77
2021/07/09 02:58:05;;;;;;;31.73;17.63;;;12.70;99.90;;;;;;4162259;28;20057;-77
2021/07/09 03:00:08;;;;;;;31.52;19.00;;;12.70;99.90;;;;;;4160761;28;20113;-77
2021/07/09 03:02:09;;;;;;;35.38;19.02;;;12.70;99.90;;;;;;4162308;28;20045;-77
2021/07/09 03:04:12;;;;;;;33.85;18.90;;;12.80;99.90;;;;;;4160490;28;20037;-76
2021/07/09 03:06:13;;;;;;;34.83;19.25;;;12.80;99.90;;;;;;4160819;28;20103;-77
2021/07/09 03:08:14;;;;;;;38.53;19.48;;;12.90;99.90;;;;;;4162362;28;20123;-77
2021/07/09 03:10:14;;;;;;;38.38;19.08;;;12.90;99.90;;;;;;4160500;28;20033;-77
2021/07/09 03:12:15;;;;;;;36.13;18.52;;;13.00;99.90;;;;;;4161744;28;20350;-77
2021/07/09 03:14:15;;;;;;;30.98;18.38;;;13.00;99.90;;;;;;4160247;28;20083;-77
2021/07/09 03:16:16;;;;;;;36.28;19.20;;;12.90;99.90;;;;;;4161308;28;20036;-77
2021/07/09 03:18:17;;;;;;;35.72;20.52;;;12.90;99.90;;;;;;4163018;28;20116;-77
2021/07/09 03:20:17;;;;;;;40.22;19.08;;;12.90;99.90;;;;;;4161864;28;20037;-77
2021/07/09 03:22:18;;;;;;;34.25;18.05;;;12.90;99.90;;;;;;4160506;28;20335;-77
2021/07/09 03:24:19;;;;;;;33.08;17.88;;;12.80;99.90;;;;;;4160571;28;20022;-76
2021/07/09 03:26:20;;;;;;;44.08;21.17;;;12.80;99.90;;;;;;4162254;28;20502;-77
2021/07/09 03:28:20;;;;;;;40.58;19.58;;;12.90;99.90;;;;;;4159358;28;21387;-77
2021/07/09 03:30:21;;;;;;;39.85;20.70;;;12.90;99.90;;;;;;4160528;28;20124;-77
2021/07/09 03:32:22;;;;;;;38.33;21.20;;;13.00;99.90;;;;;;4161950;28;20445;-77
2021/07/09 03:34:23;;;;;;;39.85;19.65;;;13.00;99.90;;;;;;4162100;28;20384;-77
2021/07/09 03:36:24;;;;;;;37.03;20.65;;;13.00;99.90;;;;;;4160633;28;20026;-77
2021/07/09 03:38:25;;;;;;;37.78;20.30;;;13.00;99.90;;;;;;4161937;28;20112;-77
2021/07/09 03:40:26;;;;;;;38.97;19.52;;;12.90;99.90;;;;;;4160155;28;20393;-76
2021/07/09 03:42:27;;;;;;;44.67;19.80;;;12.90;99.90;;;;;;4162310;28;20025;-77
2021/07/09 03:44:27;;;;;;;43.00;19.48;;;12.90;99.90;;;;;;4165214;28;20079;-76
2021/07/09 03:46:28;;;;;;;41.83;20.45;;;12.80;99.90;;;;;;4163374;28;20030;-77
2021/07/09 03:48:29;;;;;;;40.60;20.10;;;12.80;99.90;;;;;;4164790;28;20604;-76
2021/07/09 03:50:29;;;;;;;36.92;19.38;;;12.70;99.90;;;;;;4164922;28;20022;-77
2021/07/09 03:52:30;;;;;;;38.53;19.30;;;12.70;99.90;;;;;;4165634;28;20032;-77
2021/07/09 03:54:30;;;;;;;40.15;20.98;;;12.70;99.90;;;;;;4165876;28;20029;-77
2021/07/09 03:56:32;;;;;;;37.83;19.65;;;12.80;99.90;;;;;;4165911;28;20079;-76
2021/07/09 03:58:34;;;;;;;37.97;18.52;;;12.80;99.90;;;;;;4165814;28;20037;-76
2021/07/09 04:00:36;;;;;;;37.42;19.40;;;12.80;99.90;;;;;;4164159;28;20022;-77
2021/07/09 04:02:36;;;;;;;39.42;20.63;;;12.70;99.90;;;;;;4165815;28;20025;-77
2021/07/09 04:04:37;;;;;;;42.80;21.15;;;12.70;99.90;;;;;;4164604;28;20060;-77
2021/07/09 04:06:37;;;;;;;40.60;21.40;;;12.70;99.90;;;;;;4165640;28;20037;-77
2021/07/09 04:08:38;;;;;;;40.97;22.00;;;12.60;99.90;;;;;;4164114;28;20586;-76
2021/07/09 04:10:39;;;;;;;40.88;22.13;;;12.70;99.90;;;;;;4165780;28;20376;-77
2021/07/09 04:12:39;;;;;;;43.80;22.10;;;12.70;99.90;;;;;;4165489;28;20041;-76
2021/07/09 04:14:40;;;;;;;40.13;20.85;;;12.70;99.90;;;;;;4165434;28;20037;-77
2021/07/09 04:16:41;;;;;;;42.08;21.75;;;12.70;99.90;;;;;;4165437;28;20128;-76
2021/07/09 04:18:41;;;;;;;48.92;23.35;;;12.80;99.90;;;;;;4165643;28;20385;-77
2021/07/09 04:20:42;;;;;;;49.92;23.25;;;12.80;99.90;;;;;;4163915;28;20041;-76
2021/07/09 04:22:43;;;;;;;48.97;22.70;;;12.80;99.90;;;;;;4165597;28;20116;-76
2021/07/09 04:24:43;;;;;;;45.72;23.00;;;12.80;99.90;;;;;;4165168;28;20021;-76
2021/07/09 04:26:44;;;;;;;51.28;23.48;;;12.80;99.90;;;;;;4164072;28;20099;-77
2021/07/09 04:28:45;;;;;;;42.65;22.55;;;12.80;99.90;;;;;;4163959;28;20067;-77
2021/07/09 04:30:49;;;;;;;52.22;25.58;;;12.90;99.90;;;;;;4165372;28;20144;-77
2021/07/09 04:32:50;;;;;;;44.70;22.73;;;12.90;99.90;;;;;;4165559;28;20041;-76
2021/07/09 04:34:51;;;;;;;48.17;21.77;;;13.00;99.90;;;;;;4164924;28;20033;-76
2021/07/09 04:36:52;;;;;;;47.47;23.05;;;13.00;99.90;;;;;;4163840;28;20474;-76
2021/07/09 04:38:52;;;;;;;44.58;23.77;;;13.00;99.90;;;;;;4163643;28;20079;-76
2021/07/09 04:40:53;;;;;;;42.88;24.52;;;13.00;99.90;;;;;;4165218;28;20440;-76
2021/07/09 04:42:53;;;;;;;50.72;23.38;;;13.00;99.90;;;;;;4164886;28;20384;-76
2021/07/09 04:44:54;;;;;;;47.05;23.58;;;13.10;99.90;;;;;;4165032;28;20040;-76
2021/07/09 04:46:54;;;;;;;51.80;24.13;;;13.10;99.90;;;;;;4164901;28;20503;-76
2021/07/09 04:48:55;;;;;;;45.58;24.98;;;13.20;99.90;;;;;;4165314;28;20049;-76
2021/07/09 04:50:56;;;;;;;51.53;24.40;;;13.30;99.90;;;;;;4165198;28;20037;-76
2021/07/09 04:52:57;;;;;;;51.05;24.48;;;13.30;99.90;;;;;;4164786;28;20034;-77
2021/07/09 04:54:57;;;;;;;47.60;24.83;;;13.30;99.90;;;;;;4164204;28;20132;-76
2021/07/09 04:56:58;;;;;;;50.22;26.23;;;13.40;99.90;;;;;;4163180;28;20524;-76
2021/07/09 04:58:58;;;;;;;45.28;24.50;;;13.40;99.90;;;;;;4163819;28;20037;-76
2021/07/09 05:00:59;;;;;;;47.58;24.58;;;13.50;99.90;;;;;;4165112;28;20117;-76
2021/07/09 05:03:00;;;;;;;43.78;25.33;;;13.60;99.90;;;;;;4164877;28;20044;-76
2021/07/09 05:05:00;;;;;;;53.50;26.77;;;13.70;99.90;;;;;;4163402;28;20416;-75
2021/07/09 05:07:01;;;;;;;54.22;28.15;;;13.80;99.90;;;;;;4164152;28;20034;-76
2021/07/09 05:09:06;;;;;;;49.72;25.77;;;13.90;99.90;;;;;;4164762;28;20129;-75
2021/07/09 05:11:06;;;;;;;48.47;25.40;;;14.00;99.90;;;;;;4164669;28;20603;-76
2021/07/09 05:13:08;;;;;;;56.58;27.13;;;14.20;99.90;;;;;;4164538;28;20022;-77
2021/07/09 05:15:09;;;;;;;50.38;25.40;;;14.30;99.90;;;;;;4164533;28;20091;-76
2021/07/09 05:17:09;;;;;;;48.60;26.27;;;14.30;99.90;;;;;;4164547;28;20081;-77
2021/07/09 05:19:10;;;;;;;41.92;25.13;;;14.40;99.90;;;;;;4163252;28;20164;-77
2021/07/09 05:21:11;;;;;;;46.13;24.75;;;14.50;99.90;;;;;;4164197;28;20029;-76
2021/07/09 05:23:11;;;;;;;45.67;26.38;;;14.60;99.90;;;;;;4164346;28;20045;-76
2021/07/09 05:25:13;;;;;;;41.10;25.98;;;14.60;99.90;;;;;;4163171;28;20029;-77
2021/07/09 05:27:15;;;;;;;37.25;24.27;;;14.70;99.90;;;;;;4164268;28;20032;-76
2021/07/09 05:29:16;;;;;;;38.83;25.03;;;14.80;99.90;;;;;;4164733;28;20041;-76
2021/07/09 05:31:16;;;;;;;36.63;20.90;;;14.80;99.90;;;;;;4162889;28;20037;-76
2021/07/09 05:33:17;;;;;;;32.75;21.60;;;15.00;99.90;;;;;;4164326;28;20033;-76
2021/07/09 05:35:18;;;;;;;30.13;21.60;;;15.10;99.90;;;;;;4164339;28;20041;-77
2021/07/09 05:37:19;;;;;;;31.65;21.83;;;15.10;99.90;;;;;;4163041;28;20037;-77
2021/07/09 05:39:20;;;;;;;29.92;21.27;;;15.20;99.90;;;;;;4162744;28;20083;-77
2021/07/09 05:41:20;;;;;;;32.22;21.77;;;15.30;99.90;;;;;;4164286;28;20402;-77
2021/07/09 05:43:21;;;;;;;27.00;21.20;;;15.40;99.90;;;;;;4162852;28;20485;-77
2021/07/09 05:45:22;;;;;;;29.85;20.08;;;15.40;99.90;;;;;;4164289;28;20030;-76
2021/07/09 05:47:24;;;;;;;26.60;20.70;;;15.50;99.90;;;;;;4164191;28;20476;-77
2021/07/09 05:49:25;;;;;;;28.67;18.33;;;15.60;99.90;;;;;;4164169;28;20473;-77
2021/07/09 05:51:26;;;;;;;27.98;19.13;;;15.70;99.90;;;;;;4164008;28;20033;-77
2021/07/09 05:53:27;;;;;;;21.33;17.52;;;15.80;99.90;;;;;;4162532;28;20552;-77
2021/07/09 05:55:27;;;;;;;25.77;18.17;;;15.90;99.90;;;;;;4163551;28;20042;-77
2021/07/09 05:57:28;;;;;;;19.13;16.23;;;15.90;99.90;;;;;;4162074;28;20361;-76
2021/07/09 05:59:29;;;;;;;20.27;17.45;;;16.00;99.90;;;;;;4161906;28;20021;-77
2021/07/09 06:01:29;;;;;;;21.77;17.80;;;16.10;99.90;;;;;;4163068;28;20033;-76
2021/07/09 06:03:30;;;;;;;22.08;17.60;;;16.20;99.90;;;;;;4163814;28;20029;-76
2021/07/09 06:05:30;;;;;;;19.83;16.92;;;16.30;99.90;;;;;;4163364;28;20029;-76
2021/07/09 06:07:31;;;;;;;20.27;17.10;;;16.40;99.90;;;;;;4163425;28;20543;-77
2021/07/09 06:09:32;;;;;;;20.20;16.95;;;16.40;99.90;;;;;;4161841;28;20448;-77
2021/07/09 06:11:34;;;;;;;21.88;16.90;;;16.50;99.90;;;;;;4163700;28;20064;-77
2021/07/09 06:13:34;;;;;;;23.02;18.33;;;16.60;99.90;;;;;;4161741;28;20045;-76
2021/07/09 06:15:35;;;;;;;24.98;19.30;;;16.60;99.90;;;;;;4160168;28;20132;-77
2021/07/09 06:17:36;;;;;;;19.88;17.73;;;16.60;99.90;;;;;;4163454;28;20350;-76
2021/07/09 06:19:36;;;;;;;28.48;20.58;;;16.70;99.90;;;;;;4150774;28;20061;-77
2021/07/09 06:21:37;;;;;;;25.20;19.95;;;16.70;99.90;;;;;;4152457;28;20491;-77
2021/07/09 06:23:38;;;;;;;27.17;19.88;;;16.70;99.90;;;;;;4163312;28;20061;-77
2021/07/09 06:25:38;;;;;;;23.67;19.67;;;16.80;99.90;;;;;;4163177;28;20141;-77
2021/07/09 06:27:40;;;;;;;25.20;19.63;;;16.90;99.90;;;;;;4163379;28;20053;-76
2021/07/09 06:29:40;;;;;;;21.23;18.30;;;17.00;99.90;;;;;;4162135;28;20037;-76
2021/07/09 06:31:41;;;;;;;22.75;18.77;;;17.20;99.90;;;;;;4163085;28;20462;-77
2021/07/09 06:33:42;;;;;;;23.98;18.88;;;17.30;99.90;;;;;;4163255;28;20405;-77
2021/07/09 06:35:42;;;;;;;24.40;20.08;;;17.40;99.90;;;;;;4163539;28;20032;-77
2021/07/09 06:37:44;;;;;;;24.48;20.38;;;17.40;99.90;;;;;;4161757;28;20037;-76
2021/07/09 06:39:45;;;;;;;21.55;18.42;;;17.40;99.90;;;;;;4161477;28;20045;-77
2021/07/09 06:41:46;;;;;;;25.05;20.00;;;17.40;99.90;;;;;;4163052;28;20055;-77
2021/07/09 06:43:46;;;;;;;22.05;18.45;;;17.40;99.90;;;;;;4162302;28;20033;-77
2021/07/09 06:45:47;;;;;;;21.77;17.88;;;17.60;99.90;;;;;;4163058;28;20128;-77
2021/07/09 06:47:48;;;;;;;26.73;20.00;;;17.60;99.90;;;;;;4160400;28;20079;-76
2021/07/09 06:49:49;;;;;;;22.33;18.33;;;17.70;99.90;;;;;;4162789;28;20068;-77
2021/07/09 06:51:49;;;;;;;22.23;17.10;;;17.80;99.90;;;;;;4161805;28;20468;-76
2021/07/09 06:53:50;;;;;;;21.80;16.42;;;17.90;99.90;;;;;;4163020;28;20032;-77
2021/07/09 06:55:51;;;;;;;18.45;15.30;;;18.10;99.90;;;;;;4162655;28;20075;-77
2021/07/09 06:57:51;;;;;;;21.95;17.67;;;18.10;99.90;;;;;;4155921;28;20103;-77
2021/07/09 06:59:52;;;;;;;20.27;16.88;;;18.20;99.90;;;;;;4152973;28;20476;-77
2021/07/09 07:01:54;;;;;;;20.42;17.25;;;18.40;99.90;;;;;;4145722;28;20464;-77
2021/07/09 07:03:54;;;;;;;20.20;16.35;;;18.40;99.90;;;;;;4156198;28;20424;-77
2021/07/09 07:05:55;;;;;;;22.73;16.95;;;18.40;99.90;;;;;;4161476;28;20168;-77
2021/07/09 07:07:55;;;;;;;23.80;18.35;;;18.50;99.90;;;;;;4153021;28;20579;-77
2021/07/09 07:09:56;;;;;;;22.67;19.05;;;18.50;99.90;;;;;;4160171;28;20064;-77
2021/07/09 07:12:01;;;;;;;21.13;16.25;;;18.60;99.90;;;;;;4161750;28;20477;-77
2021/07/09 07:14:02;;;;;;;21.33;14.52;;;18.70;99.90;;;;;;4162942;28;20081;-76
2021/07/09 07:16:04;;;;;;;16.15;13.95;;;18.90;99.90;;;;;;4160915;28;20056;-77
2021/07/09 07:18:08;;;;;;;19.48;14.60;;;19.00;99.90;;;;;;4164071;28;20107;-77
2021/07/09 07:20:09;;;;;;;19.70;14.77;;;19.10;99.90;;;;;;4166099;28;20036;-77
2021/07/09 07:22:11;;;;;;;20.35;15.55;;;19.20;99.90;;;;;;4164202;28;20117;-77
2021/07/09 07:24:11;;;;;;;18.88;13.80;;;19.20;99.90;;;;;;4164492;28;20033;-77
2021/07/09 07:26:14;;;;;;;14.52;11.75;;;19.30;99.90;;;;;;4163867;28;20040;-77
2021/07/09 07:28:15;;;;;;;17.30;11.90;;;19.40;99.90;;;;;;4165926;28;20021;-77
2021/07/09 07:30:16;;;;;;;14.13;10.13;;;19.40;99.90;;;;;;4164752;28;20029;-77
2021/07/09 07:32:17;;;;;;;13.13;10.20;;;19.50;99.90;;;;;;4165621;28;20419;-77
2021/07/09 07:34:18;;;;;;;10.15;8.98;;;19.60;99.90;;;;;;4163149;28;20026;-77
2021/07/09 07:36:19;;;;;;;12.90;9.23;;;;;;;;;;4164129;28;20037;-77
2021/07/09 07:38:22;;;;;;;13.27;9.82;;;19.90;99.90;;;;;;4165668;28;20133;-76
2021/07/09 07:40:23;;;;;;;10.60;9.02;;;20.10;99.90;;;;;;4164598;28;20029;-76
2021/07/09 07:42:23;;;;;;;10.85;8.07;;;20.30;99.90;;;;;;4165573;28;20037;-77
2021/07/09 07:44:26;;;;;;;8.85;7.78;;;20.40;99.90;;;;;;4165998;28;20465;-77
2021/07/09 07:46:27;;;;;;;10.52;9.25;;;20.50;99.90;;;;;;4164624;28;20036;-77
2021/07/09 07:48:28;;;;;;;8.15;7.28;;;20.80;99.90;;;;;;4166027;28;20104;-77
2021/07/09 07:50:30;;;;;;;9.73;7.10;;;20.90;99.90;;;;;;4164506;28;20030;-77
2021/07/09 07:52:30;;;;;;;8.38;7.47;;;21.10;99.90;;;;;;4165209;28;20097;-77
2021/07/09 07:54:31;;;;;;;7.95;6.45;;;21.20;99.90;;;;;;4165876;28;20064;-77
2021/07/09 07:56:32;;;;;;;7.65;6.45;;;21.40;99.90;;;;;;4165415;28;20025;-77
2021/07/09 07:58:33;;;;;;;6.57;5.57;;;21.40;99.90;;;;;;4165663;28;20034;-77
2021/07/09 08:00:33;;;;;;;7.57;6.53;;;21.50;99.90;;;;;;4165817;28;20049;-77
2021/07/09 08:02:34;;;;;;;6.82;5.78;;;21.60;99.90;;;;;;4165470;28;20040;-77
2021/07/09 08:04:34;;;;;;;7.00;6.07;;;21.90;99.90;;;;;;4160933;28;20056;-77
2021/07/09 08:06:35;;;;;;;6.75;5.57;;;22.20;99.90;;;;;;4180359;28;20043;-78
2021/07/09 08:08:38;;;;;;;7.22;5.60;;;22.20;99.90;;;;;;4164138;28;20032;-77
2021/07/09 08:10:39;;;;;;;8.10;5.70;;;21.90;99.90;;;;;;4163921;28;20080;-77
2021/07/09 08:12:40;;;;;;;6.32;5.82;;;21.90;99.90;;;;;;4163872;28;20022;-77
2021/07/09 08:14:40;;;;;;;7.43;6.72;;;22.10;99.90;;;;;;4164296;28;20045;-77
2021/07/09 08:16:41;;;;;;;7.30;5.68;;;22.20;99.90;;;;;;4163986;28;20168;-77
2021/07/09 08:18:41;;;;;;;8.65;6.30;;;22.30;99.90;;;;;;4165230;28;20036;-77
2021/07/09 08:20:43;;;;;;;7.93;7.13;;;22.30;99.90;;;;;;4163555;28;20037;-77
2021/07/09 08:22:44;;;;;;;7.97;7.07;;;22.40;99.90;;;;;;4162033;28;20099;-77
2021/07/09 08:24:44;;;;;;;9.63;7.32;;;22.40;99.90;;;;;;4173627;28;20116;-77
2021/07/09 08:26:45;;;;;;;10.40;7.50;;;22.50;99.90;;;;;;4164997;28;20029;-77
2021/07/09 08:28:46;;;;;;;14.60;9.00;;;22.50;99.90;;;;;;4163158;28;20034;-78
2021/07/09 08:30:47;;;;;;;9.90;8.15;;;22.80;99.90;;;;;;4162384;28;20041;-77
2021/07/09 08:32:47;;;;;;;9.30;7.60;;;23.10;99.90;;;;;;4163579;28;20037;-77
2021/07/09 08:34:48;;;;;;;14.02;10.43;;;23.50;99.90;;;;;;4164076;28;20092;-78
2021/07/09 08:36:49;;;;;;;15.25;10.77;;;23.50;99.90;;;;;;4160512;28;20034;-78
2021/07/09 08:38:50;;;;;;;10.95;9.85;;;23.60;99.90;;;;;;4163395;28;20037;-76
2021/07/09 08:40:51;;;;;;;11.60;9.15;;;24.00;99.90;;;;;;4162464;28;20022;-78
2021/07/09 08:42:52;;;;;;;11.85;10.45;;;24.00;99.90;;;;;;4163134;28;20068;-78
2021/07/09 08:44:52;;;;;;;13.18;10.52;;;24.00;99.90;;;;;;4164674;28;20091;-78
2021/07/09 08:46:56;;;;;;;10.85;9.55;;;24.00;99.90;;;;;;4163231;28;20501;-78
2021/07/09 08:48:57;;;;;;;10.93;9.80;;;23.70;99.90;;;;;;4162772;28;20496;-77
2021/07/09 08:50:59;;;;;;;13.45;11.63;;;23.50;99.90;;;;;;4163332;28;20037;-78
2021/07/09 08:52:59;;;;;;;12.63;11.32;;;23.70;99.90;;;;;;4164217;28;20389;-77
2021/07/09 08:55:00;;;;;;;15.68;12.55;;;23.70;99.90;;;;;;4164141;28;20095;-78
2021/07/09 08:57:00;;;;;;;15.38;11.80;;;23.70;99.90;;;;;;4164004;28;20065;-77
2021/07/09 08:59:01;;;;;;;15.88;11.93;;;23.80;99.90;;;;;;4162989;28;20017;-77
2021/07/09 09:01:05;;;;;;;14.10;12.00;;;23.70;99.90;;;;;;4163675;28;20017;-77
2021/07/09 09:03:19;;;;;;;17.23;12.93;;;23.70;99.90;;;;;;4158538;28;20500;-78
2021/07/09 09:05:21;;;;;;;15.23;13.35;;;24.00;99.90;;;;;;4162759;28;20018;-78
2021/07/09 09:07:29;;;;;;;16.98;12.43;;;24.00;99.90;;;;;;4163988;28;20099;-76
2021/07/09 09:09:33;;;;;;;15.57;13.60;;;23.90;99.90;;;;;;4163835;28;20037;-77
2021/07/09 09:11:33;;;;;;;14.85;13.35;;;23.90;99.90;;;;;;4164118;28;20548;-78
2021/07/09 09:13:36;;;;;;;15.65;13.38;;;24.10;99.90;;;;;;4164128;28;20038;-77
2021/07/09 09:15:39;;;;;;;16.92;14.63;;;24.60;99.90;;;;;;4164453;28;20049;-78
2021/07/09 09:17:39;;;;;;;16.15;13.43;;;24.80;99.90;;;;;;4164565;28;20029;-77
2021/07/09 09:19:40;;;;;;;18.02;14.05;;;24.30;99.90;;;;;;4164724;28;20134;-78
2021/07/09 09:21:41;;;;;;;18.00;15.07;;;23.70;99.90;;;;;;4164459;28;20399;-78
2021/07/09 09:23:47;;;;;;;18.15;15.38;;;23.40;99.90;;;;;;4164599;28;20083;-77
2021/07/09 09:25:48;;;;;;;18.40;16.40;;;23.70;99.90;;;;;;4162973;28;20057;-78
2021/07/09 09:28:07;;;;;;;18.85;14.40;;;23.60;99.90;;;;;;4163191;28;20064;-78
2021/07/09 09:30:12;;;;;;;16.65;13.60;;;23.80;99.90;;;;;;4164010;28;20030;-78
2021/07/09 09:32:14;;;;;;;15.88;14.20;;;24.10;99.90;;;;;;4164487;28;20034;-78
2021/07/09 09:34:15;;;;;;;17.92;15.38;;;24.20;99.90;;;;;;4163087;28;20049;-78
2021/07/09 09:36:16;;;;;;;16.00;14.07;;;24.10;99.90;;;;;;4163083;28;20378;-77
2021/07/09 09:38:17;;;;;;;16.60;13.32;;;24.20;99.90;;;;;;4162288;28;20468;-77
2021/07/09 09:40:20;;;;;;;14.98;13.50;;;24.40;99.90;;;;;;4161487;28;20030;-78
2021/07/09 09:42:23;;;;;;;16.53;13.40;;;24.40;99.90;;;;;;4162036;28;20036;-76
2021/07/09 09:44:31;;;;;;;19.00;15.07;;;24.70;99.90;;;;;;4162719;28;20268;-78
2021/07/09 09:46:31;;;;;;;17.85;13.82;;;24.90;99.90;;;;;;4163244;28;20026;-78
2021/07/09 09:48:46;;;;;;;16.35;14.65;;;25.00;99.90;;;;;;4162885;28;20117;-78
2021/07/09 09:50:50;;;;;;;14.95;12.80;;;25.40;99.90;;;;;;4161366;28;20544;-78
2021/07/09 09:52:53;;;;;;;13.75;12.32;;;24.90;99.90;;;;;;4162268;28;20034;-78
2021/07/09 09:54:53;;;;;;;;;;;25.20;99.90;;;;;;4163013;28;20030;-77
2021/07/09 09:56:54;;;;;;;14.60;12.25;;;25.20;99.90;;;;;;4162709;28;19920;-78
2021/07/09 09:59:39;;;;;;;12.68;11.32;;;24.90;99.90;;;;;;4162768;28;20503;-77
2021/07/09 10:01:55;;;;;;;15.00;12.23;;;24.90;99.90;;;;;;4164053;28;20120;-77
2021/07/09 10:03:56;;;;;;;11.43;10.23;;;25.40;99.90;;;;;;4149039;28;20571;-78
2021/07/09 10:05:59;;;;;;;12.73;10.85;;;25.50;99.90;;;;;;4162780;28;20375;-77
2021/07/09 10:08:00;;;;;;;12.90;11.15;;;25.60;99.90;;;;;;4161788;28;20448;-78
2021/07/09 10:10:05;;;;;;;14.70;10.70;;;25.80;99.90;;;;;;4162424;28;20045;-78
2021/07/09 10:12:07;;;;;;;15.52;10.65;;;26.00;99.90;;;;;;4161748;28;20101;-78
2021/07/09 10:14:19;;;;;;;15.90;10.77;;;25.40;99.90;;;;;;4162183;28;20044;-78
2021/07/09 10:16:20;;;;;;;11.38;9.23;;;24.80;99.90;;;;;;4161608;28;20064;-78
2021/07/09 10:18:22;;;;;;;14.32;10.88;;;25.00;99.90;;;;;;4176446;28;20037;-79